Time;durP1;ratioP1;P1;durP2;ratioP2;P2;SDS_P1;SDS_P2;PMS_P1;PMS_P2;Temp;Humidity;BMP_temperature;BMP_pressure;BME280_temperature;BME280_humidity;BME280_pressure;Samples;Min_cycle;Max_cycle;Signal;HPM_P1;HPM_P2
2022/04/01 00:03:20;;;;;;;1.35;0.80;;;7.60;81.30;;;;;;10360430;28;20052;-62
2022/04/01 00:08:21;;;;;;;1.05;0.73;;;7.60;81.40;;;;;;10350197;28;20026;-63
2022/04/01 00:13:22;;;;;;;2.60;0.93;;;7.50;81.20;;;;;;10355542;28;20100;-63
2022/04/01 00:18:23;;;;;;;0.93;0.80;;;7.60;81.40;;;;;;10349869;28;20104;-64
2022/04/01 00:23:25;;;;;;;1.60;1.10;;;7.50;81.20;;;;;;10350426;28;20072;-65
2022/04/01 00:28:25;;;;;;;1.40;0.85;;;7.60;81.40;;;;;;10361893;28;20100;-63
2022/04/01 00:33:27;;;;;;;2.90;0.95;;;7.50;81.20;;;;;;10338389;28;20076;-63
2022/04/01 00:38:28;;;;;;;3.97;1.13;;;7.50;81.30;;;;;;10345331;28;20542;-62
2022/04/01 00:43:32;;;;;;;1.20;0.80;;;7.40;81.50;;;;;;10350552;28;20037;-62
2022/04/01 00:48:33;;;;;;;1.48;1.30;;;7.40;81.30;;;;;;10363079;28;20068;-63
2022/04/01 00:53:34;;;;;;;0.90;0.80;;;8.40;81.80;;;;;;10346970;28;20029;-61
2022/04/01 00:58:35;;;;;;;2.13;0.90;;;7.40;81.30;;;;;;10355882;28;20054;-64
2022/04/01 01:03:36;;;;;;;1.42;0.70;;;7.40;81.20;;;;;;10358905;28;20137;-63
2022/04/01 01:08:40;;;;;;;1.13;0.65;;;7.50;81.40;;;;;;10347911;28;21008;-64
2022/04/01 01:13:41;;;;;;;1.63;0.80;;;7.40;81.20;;;;;;10352714;28;20461;-64
2022/04/01 01:18:43;;;;;;;1.38;0.80;;;7.40;81.30;;;;;;10348503;28;20089;-64
2022/04/01 01:23:45;;;;;;;2.13;0.80;;;7.40;81.40;;;;;;10347952;28;20038;-64
2022/04/01 01:28:46;;;;;;;1.40;0.70;;;7.30;81.20;;;;;;10359966;28;20023;-64
2022/04/01 01:33:49;;;;;;;1.85;0.88;;;7.30;81.10;;;;;;10359771;28;20046;-64
2022/04/01 01:38:53;;;;;;;1.58;0.88;;;7.30;81.20;;;;;;10347998;28;20431;-64
2022/04/01 01:43:54;;;;;;;1.00;0.57;;;7.30;81.30;;;;;;10350451;28;20025;-64
2022/04/01 01:48:55;;;;;;;4.07;0.82;;;7.30;81.20;;;;;;10361340;28;20454;-62
2022/04/01 01:59:16;;;;;;;1.52;0.80;;;7.30;81.20;;;;;;10358607;28;20034;-64
2022/04/01 02:04:17;;;;;;;1.17;0.88;;;7.30;81.30;;;;;;10368480;28;20076;-63
2022/04/01 02:09:18;;;;;;;2.45;0.68;;;7.20;81.10;;;;;;10354123;28;20484;-62
2022/04/01 02:14:20;;;;;;;1.35;0.70;;;7.20;81.10;;;;;;10349180;28;20038;-64
2022/04/01 02:19:23;;;;;;;1.70;0.90;;;7.30;81.50;;;;;;10354625;28;20123;-64
2022/04/01 02:24:26;;;;;;;0.93;0.60;;;7.40;81.30;;;;;;10354550;28;20060;-64
2022/04/01 02:29:28;;;;;;;0.82;0.60;;;7.20;81.40;;;;;;10358951;28;20013;-62
2022/04/01 02:34:28;;;;;;;1.23;0.60;;;7.20;81.20;;;;;;10338551;28;20050;-64
2022/04/01 02:39:30;;;;;;;1.35;0.70;;;7.20;81.30;;;;;;10358900;28;20518;-64
2022/04/01 02:44:31;;;;;;;1.70;0.68;;;7.20;81.40;;;;;;10353873;28;20033;-65
2022/04/01 02:49:32;;;;;;;1.55;0.60;;;7.20;81.30;;;;;;10367745;28;20109;-64
2022/04/01 02:54:34;;;;;;;1.92;0.82;;;7.20;81.30;;;;;;10357982;28;20040;-63
2022/04/01 02:59:37;;;;;;;1.10;0.75;;;7.20;81.10;;;;;;10356991;28;20037;-62
2022/04/01 03:04:38;;;;;;;3.60;0.73;;;7.20;81.20;;;;;;10364311;28;20032;-64
2022/04/01 03:09:39;;;;;;;1.10;0.70;;;7.10;81.10;;;;;;10352740;28;20131;-63
2022/04/01 03:14:39;;;;;;;0.90;0.55;;;7.10;81.10;;;;;;10358110;28;20046;-64
2022/04/01 03:19:40;;;;;;;2.55;0.70;;;7.10;81.70;;;;;;10352919;28;20041;-64
2022/04/01 03:24:42;;;;;;;2.95;0.75;;;6.60;80.80;;;;;;10352384;28;20492;-62
2022/04/01 03:29:43;;;;;;;3.20;0.80;;;7.10;81.10;;;;;;10360339;28;20540;-64
2022/04/01 03:34:45;;;;;;;3.30;0.77;;;7.40;81.30;;;;;;10335197;28;20049;-64
2022/04/01 03:39:47;;;;;;;2.78;0.80;;;7.10;81.10;;;;;;10358352;28;20493;-64
2022/04/01 03:44:48;;;;;;;1.52;0.80;;;7.10;81.10;;;;;;10355206;28;20079;-64
2022/04/01 03:49:57;;;;;;;2.05;0.90;;;7.10;81.10;;;;;;10360417;28;20084;-64
2022/04/01 03:55:06;;;;;;;1.13;0.80;;;7.10;81.10;;;;;;10363811;28;20226;-63
2022/04/01 04:00:12;;;;;;;1.52;0.93;;;7.10;81.10;;;;;;10353296;28;20014;-64
2022/04/01 04:05:19;;;;;;;1.90;1.00;;;7.00;81.10;;;;;;10358120;28;20117;-63
2022/04/01 04:10:21;;;;;;;1.25;0.88;;;7.00;81.10;;;;;;10358913;28;20022;-62
2022/04/01 04:15:23;;;;;;;1.95;0.65;;;7.00;81.00;;;;;;10352304;28;20050;-63
2022/04/01 04:20:34;;;;;;;3.97;0.70;;;7.00;80.90;;;;;;10350389;28;20552;-64
2022/04/01 04:25:37;;;;;;;2.45;0.90;;;7.00;80.80;;;;;;10355659;28;20512;-63
2022/04/01 04:30:48;;;;;;;2.00;0.90;;;7.10;81.00;;;;;;10361644;28;20014;-63
2022/04/01 04:35:50;;;;;;;1.42;0.75;;;7.00;80.90;;;;;;10344306;28;20040;-64
2022/04/01 04:40:52;;;;;;;1.70;1.08;;;7.00;80.70;;;;;;10357055;28;20132;-64
2022/04/01 04:45:53;;;;;;;1.17;0.70;;;7.10;80.70;;;;;;10358609;28;20029;-65
2022/04/01 04:50:54;;;;;;;1.05;0.57;;;7.00;80.60;;;;;;10344015;28;20105;-65
2022/04/01 04:55:57;;;;;;;1.33;0.73;;;7.00;80.60;;;;;;10351352;28;20038;-64
2022/04/01 05:01:05;;;;;;;1.15;0.75;;;7.00;80.50;;;;;;10358026;28;20030;-64
2022/04/01 05:06:10;;;;;;;1.52;0.70;;;7.00;80.40;;;;;;10353375;28;20049;-64
2022/04/01 05:11:41;;;;;;;1.35;0.70;;;6.90;80.30;;;;;;10354885;28;20542;-64
2022/04/01 05:16:54;;;;;;;2.65;0.63;;;6.90;80.10;;;;;;10353076;28;20073;-63
2022/04/01 05:22:09;;;;;;;1.75;0.70;;;7.00;80.10;;;;;;10354148;28;20030;-64
2022/04/01 05:27:30;;;;;;;1.38;0.88;;;6.90;79.90;;;;;;10362128;28;20034;-65
2022/04/01 05:32:37;;;;;;;1.83;0.70;;;7.00;79.80;;;;;;10343495;28;20041;-65
2022/04/01 05:37:40;;;;;;;2.10;0.82;;;6.90;79.80;;;;;;10356751;28;20484;-63
2022/04/01 05:42:41;;;;;;;1.20;0.73;;;7.00;79.70;;;;;;10357847;28;20033;-63
2022/04/01 05:47:43;;;;;;;2.05;0.73;;;6.90;79.70;;;;;;10370027;28;20423;-64
2022/04/01 05:52:47;;;;;;;1.27;0.77;;;6.90;79.70;;;;;;10351969;28;20030;-63
2022/04/01 05:57:48;;;;;;;0.60;0.57;;;6.90;79.70;;;;;;10368657;28;20500;-64
2022/04/01 06:03:25;;;;;;;2.70;0.70;;;7.00;79.70;;;;;;10359867;28;20124;-64
2022/04/01 06:08:38;;;;;;;1.10;0.73;;;7.00;79.50;;;;;;10349068;28;20030;-65
2022/04/01 06:14:01;;;;;;;1.08;0.50;;;7.00;79.50;;;;;;10370292;28;20377;-69
2022/04/01 06:19:23;;;;;;;1.17;0.45;;;7.00;79.70;;;;;;10337641;28;20551;-65
2022/04/01 06:24:42;;;;;;;0.80;0.50;;;7.10;79.90;;;;;;10341380;28;20022;-66
2022/04/01 06:29:47;;;;;;;2.47;0.65;;;7.10;79.80;;;;;;10362428;28;20061;-68
2022/04/01 06:34:53;;;;;;;0.73;0.55;;;7.10;79.80;;;;;;10362802;28;20121;-62
2022/04/01 06:40:05;;;;;;;2.13;0.75;;;7.10;80.00;;;;;;10351845;28;20054;-63
2022/04/01 06:45:10;;;;;;;1.42;0.60;;;7.10;80.00;;;;;;10349783;28;20041;-68
2022/04/01 06:50:12;;;;;;;0.63;0.50;;;7.20;80.00;;;;;;10348546;28;20026;-65
2022/04/01 06:55:13;;;;;;;0.75;0.50;;;7.20;80.10;;;;;;10354372;28;20030;-63
2022/04/01 07:00:14;;;;;;;1.00;0.60;;;7.20;80.10;;;;;;10365618;28;20437;-64
2022/04/01 07:05:15;;;;;;;2.05;0.63;;;7.30;80.20;;;;;;10357347;28;20072;-64
2022/04/01 07:10:16;;;;;;;0.70;0.50;;;7.30;80.10;;;;;;10353586;28;20033;-58
2022/04/01 07:15:16;;;;;;;1.38;0.50;;;7.30;80.00;;;;;;10357093;28;20054;-63
2022/04/01 07:20:17;;;;;;;2.20;0.60;;;7.30;80.00;;;;;;10358623;28;20030;-68
2022/04/01 07:25:19;;;;;;;1.17;0.60;;;7.30;79.80;;;;;;10357518;28;20053;-60
2022/04/01 07:30:20;;;;;;;2.50;0.50;;;7.40;79.80;;;;;;10359203;28;20034;-63
2022/04/01 07:35:22;;;;;;;1.05;0.40;;;7.40;80.50;;;;;;10361640;28;20046;-64
2022/04/01 07:40:24;;;;;;;0.85;0.50;;;7.40;79.70;;;;;;10341549;28;20031;-66
2022/04/01 07:45:25;;;;;;;1.20;0.68;;;7.40;79.70;;;;;;10353293;28;20034;-62
2022/04/01 07:50:26;;;;;;;3.35;0.70;;;7.40;79.80;;;;;;10348719;28;20040;-63
2022/04/01 07:55:27;;;;;;;1.95;0.30;;;7.40;79.90;;;;;;10365262;28;20034;-66
2022/04/01 08:00:29;;;;;;;1.60;0.38;;;7.40;80.00;;;;;;10356166;28;20504;-66
2022/04/01 08:05:30;;;;;;;1.50;0.70;;;7.40;80.20;;;;;;10327442;28;20037;-63
2022/04/01 08:10:30;;;;;;;2.17;0.50;;;7.40;80.20;;;;;;10354249;28;20022;-61
2022/04/01 08:15:31;;;;;;;1.40;0.50;;;7.50;80.30;;;;;;10355307;28;20092;-65
2022/04/01 08:20:33;;;;;;;1.08;0.52;;;7.50;80.40;;;;;;10343928;28;20041;-63
2022/04/01 08:25:33;;;;;;;1.10;0.55;;;7.50;80.40;;;;;;10353454;28;20021;-60
2022/04/01 08:30:34;;;;;;;1.80;0.60;;;7.60;80.50;;;;;;10351069;28;20022;-62
2022/04/01 08:35:35;;;;;;;0.95;0.60;;;7.60;80.50;;;;;;10354933;28;20038;-61
2022/04/01 08:40:36;;;;;;;0.63;0.50;;;7.60;80.50;;;;;;10354009;28;20030;-64
2022/04/01 08:45:38;;;;;;;1.08;0.65;;;7.60;80.60;;;;;;10341027;28;20129;-60
2022/04/01 08:50:41;;;;;;;1.35;0.68;;;7.70;80.70;;;;;;10357416;28;20019;-60
2022/04/01 08:55:47;;;;;;;5.88;0.63;;;7.70;80.90;;;;;;10348973;28;20561;-65
2022/04/01 09:00:49;;;;;;;2.15;0.70;;;7.70;80.90;;;;;;10354452;28;20103;-63
2022/04/01 09:05:55;;;;;;;1.63;0.90;;;7.80;80.80;;;;;;10360768;28;20113;-58
2022/04/01 09:11:04;;;;;;;2.53;1.25;;;7.80;80.80;;;;;;10362940;28;20379;-65
2022/04/01 09:16:05;;;;;;;1.85;0.90;;;7.80;80.90;;;;;;10356904;28;20046;-63
2022/04/01 09:21:08;;;;;;;1.27;0.80;;;7.80;80.90;;;;;;10348282;28;20026;-61
2022/04/01 09:26:09;;;;;;;2.38;0.95;;;7.80;80.90;;;;;;10368030;28;20018;-61
2022/04/01 09:31:15;;;;;;;5.95;1.30;;;7.90;81.00;;;;;;10346271;28;20393;-73
2022/04/01 09:36:25;;;;;;;2.10;1.23;;;8.00;81.10;;;;;;10355808;28;20034;-64
2022/04/01 09:41:46;;;;;;;7.25;3.17;;;7.90;81.00;;;;;;10370872;28;20531;-63
2022/04/01 09:46:52;;;;;;;4.95;2.97;;;6.50;77.90;;;;;;10363844;28;20468;-66
2022/04/01 09:51:53;;;;;;;5.32;2.70;;;5.00;83.10;;;;;;10358172;28;20030;-61
2022/04/01 09:56:58;;;;;;;5.13;2.40;;;5.30;84.00;;;;;;10365146;28;20044;-60
2022/04/01 10:01:59;;;;;;;5.40;2.75;;;5.90;83.20;;;;;;10360180;28;20058;-64
2022/04/01 10:07:02;;;;;;;4.07;2.28;;;6.40;82.20;;;;;;10356522;28;20070;-66
2022/04/01 10:12:08;;;;;;;3.65;2.05;;;6.70;81.90;;;;;;10365164;28;20022;-61
2022/04/01 10:17:14;;;;;;;4.32;2.67;;;7.00;81.70;;;;;;10359442;28;20408;-62
2022/04/01 10:22:16;;;;;;;4.57;2.35;;;7.00;81.00;;;;;;10357420;28;20033;-66
2022/04/01 10:27:40;;;;;;;6.40;2.42;;;7.20;81.40;;;;;;10360065;28;20037;-66
2022/04/01 10:32:43;;;;;;;4.35;2.40;;;7.30;81.80;;;;;;10348662;28;20029;-64
2022/04/01 10:37:44;;;;;;;3.63;2.45;;;8.20;82.20;;;;;;10368604;28;20054;-65
2022/04/01 10:42:48;;;;;;;4.63;2.35;;;7.60;80.90;;;;;;10363640;28;20040;-63
2022/04/01 10:53:37;;;;;;;6.43;2.40;;;7.80;81.40;;;;;;10359757;28;20539;-62
2022/04/01 10:58:37;;;;;;;3.42;2.30;;;7.90;81.60;;;;;;10362806;28;20034;-68
2022/04/01 11:03:38;;;;;;;3.63;2.42;;;7.80;81.30;;;;;;10365574;28;20036;-73
2022/04/01 11:08:55;;;;;;;4.18;2.50;;;8.00;81.40;;;;;;10348621;28;20351;-62
2022/04/01 11:14:08;;;;;;;4.07;2.47;;;8.00;81.90;;;;;;10355703;28;20505;-66
2022/04/01 11:19:17;;;;;;;4.45;2.35;;;8.10;81.80;;;;;;10372397;28;20248;-62
2022/04/01 11:24:33;;;;;;;5.40;2.33;;;8.20;81.40;;;;;;10341679;28;20030;-67
2022/04/01 11:29:33;;;;;;;4.10;2.20;;;8.10;81.20;;;;;;10355479;28;20427;-69
2022/04/01 11:34:55;;;;;;;5.25;3.33;;;8.10;81.20;;;;;;10356059;28;20064;-66
2022/04/01 11:40:17;;;;;;;4.10;2.30;;;8.00;80.30;;;;;;10363134;28;20030;-65
2022/04/01 11:45:24;;;;;;;3.13;1.80;;;8.00;80.50;;;;;;10336318;28;20121;-63
2022/04/01 11:50:26;;;;;;;2.85;1.75;;;8.10;80.60;;;;;;10350335;28;20021;-62
2022/04/01 11:55:28;;;;;;;4.55;2.13;;;8.20;80.50;;;;;;10365515;28;20045;-65
2022/04/01 12:00:31;;;;;;;3.78;2.15;;;8.40;80.30;;;;;;10354650;28;20030;-64
2022/04/01 12:05:35;;;;;;;4.45;1.95;;;8.50;80.20;;;;;;10329882;28;20038;-67
2022/04/01 12:10:36;;;;;;;4.72;2.05;;;8.60;80.20;;;;;;10351640;28;20382;-62
2022/04/01 12:15:43;;;;;;;2.65;1.60;;;8.60;80.40;;;;;;10336826;28;20050;-61
2022/04/01 12:20:45;;;;;;;3.10;1.70;;;8.50;80.70;;;;;;10334780;28;20065;-65
2022/04/01 12:25:49;;;;;;;3.00;1.67;;;8.50;81.10;;;;;;10357181;28;20057;-66
2022/04/01 12:30:53;;;;;;;3.67;1.25;;;8.50;81.30;;;;;;10326838;28;20045;-60
2022/04/01 12:36:04;;;;;;;3.88;1.60;;;8.50;81.40;;;;;;10341093;28;20121;-65
2022/04/01 12:41:15;;;;;;;2.72;1.25;;;8.60;81.70;;;;;;10351797;28;20028;-66
2022/04/01 12:46:36;;;;;;;4.13;1.42;;;8.60;81.80;;;;;;10358247;28;20037;-64
2022/04/01 12:51:39;;;;;;;3.70;1.30;;;8.60;81.80;;;;;;10337995;28;20066;-64
2022/04/01 12:56:42;;;;;;;2.85;1.42;;;8.70;81.90;;;;;;10355787;28;20029;-66
2022/04/01 13:02:06;;;;;;;3.25;1.35;;;8.70;81.90;;;;;;10351980;28;20019;-67
2022/04/01 13:07:16;;;;;;;2.88;1.27;;;8.80;82.30;;;;;;10354782;28;20018;-62
2022/04/01 13:12:35;;;;;;;2.92;1.38;;;8.80;81.90;;;;;;10352052;28;20165;-69
2022/04/01 13:18:38;;;;;;;2.00;1.17;;;9.30;82.30;;;;;;10343278;28;20046;-60
2022/04/01 13:24:00;;;;;;;4.55;1.20;;;8.80;81.90;;;;;;10367656;28;20068;-69
2022/04/01 13:29:04;;;;;;;1.30;1.10;;;9.40;82.00;;;;;;10346547;28;20515;-65
2022/04/01 13:34:05;;;;;;;1.80;0.90;;;9.60;81.90;;;;;;10340781;28;20048;-67
2022/04/01 13:39:06;;;;;;;0.82;0.70;;;8.90;81.40;;;;;;10352351;28;20040;-68
2022/04/01 13:44:07;;;;;;;2.40;0.75;;;9.00;81.10;;;;;;10348458;28;20037;-67
2022/04/01 13:49:08;;;;;;;1.35;0.70;;;9.00;81.10;;;;;;10345358;28;20058;-66
2022/04/01 13:54:09;;;;;;;3.78;1.00;;;9.00;81.30;;;;;;10339660;28;20122;-66
2022/04/01 13:59:10;;;;;;;1.33;0.93;;;9.00;81.40;;;;;;10353182;28;20022;-64
2022/04/01 14:04:11;;;;;;;2.55;0.90;;;8.90;81.40;;;;;;10365186;28;20452;-60
2022/04/01 14:09:11;;;;;;;1.92;1.00;;;8.90;81.50;;;;;;10348311;28;20046;-66
2022/04/01 14:14:12;;;;;;;1.38;1.02;;;8.80;81.30;;;;;;10352693;28;20038;-62
2022/04/01 14:19:13;;;;;;;1.80;0.93;;;8.80;81.80;;;;;;10370680;28;20449;-64
2022/04/01 14:24:14;;;;;;;4.30;1.00;;;8.80;82.00;;;;;;10361273;28;20084;-62
2022/04/01 14:34:38;;;;;;;2.33;1.13;;;6.90;74.80;;;;;;10342290;28;20034;-63
2022/04/01 14:39:39;;;;;;;3.25;1.30;;;5.90;75.30;;;;;;10366604;28;20100;-65
2022/04/01 14:44:39;;;;;;;1.05;0.75;;;5.90;78.20;;;;;;10356047;28;20058;-72
2022/04/01 14:49:40;;;;;;;5.50;1.33;;;6.40;79.10;;;;;;10352888;28;20080;-66
2022/04/01 14:54:41;;;;;;;1.80;0.73;;;6.90;79.10;;;;;;10346223;28;20042;-65
2022/04/01 14:59:42;;;;;;;2.95;1.20;;;7.30;79.20;;;;;;10362910;28;20109;-66
2022/04/01 15:04:45;;;;;;;2.03;1.00;;;7.60;78.80;;;;;;10355293;28;20093;-65
2022/04/01 15:09:46;;;;;;;4.55;1.13;;;7.80;79.10;;;;;;10357512;28;20083;-66
2022/04/01 15:14:47;;;;;;;2.45;1.40;;;7.90;78.90;;;;;;10368926;28;20101;-63
2022/04/01 15:19:48;;;;;;;1.63;0.65;;;8.10;78.90;;;;;;10362846;28;20069;-62
2022/04/01 15:24:51;;;;;;;1.85;1.02;;;8.20;78.80;;;;;;10353775;28;20030;-64
2022/04/01 15:29:53;;;;;;;5.25;0.93;;;8.30;79.10;;;;;;10352180;28;20069;-63
2022/04/01 15:34:53;;;;;;;2.05;1.33;;;8.40;79.40;;;;;;10344011;28;20417;-64
2022/04/01 15:39:56;;;;;;;2.78;0.77;;;8.50;79.80;;;;;;10358067;28;20037;-64
2022/04/01 15:44:56;;;;;;;3.88;0.95;;;8.60;80.30;;;;;;10339623;28;20465;-63
2022/04/01 15:49:57;;;;;;;1.10;0.68;;;8.70;80.50;;;;;;10358924;28;20525;-63
2022/04/01 15:54:58;;;;;;;1.98;1.13;;;8.80;80.90;;;;;;10352674;28;20566;-66
2022/04/01 16:00:00;;;;;;;1.25;0.70;;;8.70;81.10;;;;;;10357508;28;20022;-64
2022/04/01 16:05:06;;;;;;;2.00;0.60;;;8.70;81.40;;;;;;10356733;28;20381;-61
2022/04/01 16:10:12;;;;;;;2.83;0.85;;;8.70;81.70;;;;;;10351240;28;20026;-63
2022/04/01 16:15:13;;;;;;;1.70;0.80;;;8.70;81.90;;;;;;10357652;28;20045;-64
2022/04/01 16:20:14;;;;;;;2.10;0.73;;;8.70;82.10;;;;;;10337200;28;20034;-65
2022/04/01 16:25:14;;;;;;;2.13;0.77;;;8.70;82.30;;;;;;10337420;28;20479;-68
2022/04/01 16:30:17;;;;;;;1.77;0.90;;;8.60;82.50;;;;;;10355917;28;20386;-69
2022/04/01 16:35:18;;;;;;;1.17;0.70;;;8.60;82.70;;;;;;10348240;28;20233;-63
2022/04/01 16:40:19;;;;;;;0.75;0.55;;;8.70;82.70;;;;;;10354423;28;20392;-69
2022/04/01 16:45:20;;;;;;;0.90;0.60;;;8.60;82.90;;;;;;10346734;28;20027;-63
2022/04/01 16:50:21;;;;;;;0.73;0.50;;;8.60;82.90;;;;;;10344263;28;20075;-65
2022/04/01 16:55:22;;;;;;;1.63;0.70;;;8.60;82.90;;;;;;10342186;28;20037;-70
2022/04/01 17:00:23;;;;;;;1.83;0.60;;;8.60;82.90;;;;;;10347810;28;20081;-67
2022/04/01 17:05:24;;;;;;;1.00;0.45;;;8.60;82.80;;;;;;10355176;28;20381;-65
2022/04/01 17:15:44;;;;;;;2.55;1.02;;;8.50;82.90;;;;;;10361270;28;20137;-66
2022/04/01 17:20:45;;;;;;;3.72;0.70;;;8.50;82.30;;;;;;10342151;28;20025;-68
2022/04/01 17:25:45;;;;;;;27.95;5.00;;;8.50;82.30;;;;;;10349019;28;20397;-70
2022/04/01 17:30:48;;;;;;;15.02;3.28;;;8.60;82.80;;;;;;10344756;28;20189;-72
2022/04/01 17:35:53;;;;;;;15.38;2.53;;;8.60;82.50;;;;;;10349467;28;20046;-74
2022/04/01 17:41:01;;;;;;;11.30;3.15;;;8.60;82.80;;;;;;10332236;28;20037;-69
2022/04/01 17:46:05;;;;;;;14.35;2.60;;;8.80;82.70;;;;;;10363019;28;20021;-68
2022/04/01 17:51:06;;;;;;;5.85;1.77;;;8.80;82.40;;;;;;10373978;28;20373;-72
2022/04/01 17:56:09;;;;;;;8.98;1.88;;;8.70;82.60;;;;;;10356227;28;20050;-63
2022/04/01 18:01:09;;;;;;;9.35;2.00;;;8.60;82.90;;;;;;10352090;28;20041;-65
2022/04/01 18:06:10;;;;;;;7.53;1.45;;;8.60;83.80;;;;;;10374723;28;20037;-66
2022/04/01 18:11:11;;;;;;;3.72;1.48;;;8.50;83.40;;;;;;10390429;28;20427;-66
2022/04/01 18:16:12;;;;;;;7.53;1.50;;;8.50;83.40;;;;;;10388865;28;20404;-65
2022/04/01 18:21:13;;;;;;;2.83;1.33;;;8.50;83.60;;;;;;10356203;28;20026;-67
2022/04/01 18:26:38;;;;;;;4.80;1.55;;;8.40;83.50;;;;;;10340624;28;20396;-61
2022/04/01 18:31:39;;;;;;;5.28;1.30;;;8.40;83.60;;;;;;10356587;28;20571;-66
2022/04/01 18:36:40;;;;;;;3.00;1.02;;;8.40;83.30;;;;;;10347487;28;20092;-64
2022/04/01 18:41:42;;;;;;;3.38;1.38;;;8.40;83.30;;;;;;10330612;28;20073;-63
2022/04/01 18:46:44;;;;;;;5.60;1.05;;;8.30;83.30;;;;;;10345759;28;20037;-71
2022/04/01 18:51:45;;;;;;;2.53;1.00;;;8.30;83.30;;;;;;10347899;28;20022;-66
2022/04/01 18:56:48;;;;;;;5.22;1.10;;;8.40;83.40;;;;;;10344184;28;20053;-66
2022/04/01 19:01:56;;;;;;;1.13;0.80;;;8.40;83.40;;;;;;10330085;28;20031;-64
2022/04/01 19:07:08;;;;;;;5.57;1.10;;;8.20;83.10;;;;;;10343092;28;20053;-61
2022/04/01 19:12:09;;;;;;;2.35;0.90;;;8.20;83.00;;;;;;10360195;28;20061;-64
2022/04/01 19:17:10;;;;;;;3.55;1.00;;;8.20;83.00;;;;;;10363140;28;20077;-65
2022/04/01 19:22:13;;;;;;;3.60;0.90;;;8.20;83.10;;;;;;10358847;28;20573;-62
2022/04/01 19:27:14;;;;;;;3.53;0.80;;;8.20;83.00;;;;;;10356096;28;20033;-64
2022/04/01 19:32:15;;;;;;;2.83;1.00;;;8.20;82.80;;;;;;10358735;28;20049;-62
2022/04/01 19:37:17;;;;;;;4.10;0.80;;;8.20;82.70;;;;;;10360447;28;20436;-64
2022/04/01 19:42:18;;;;;;;1.52;0.68;;;8.10;82.50;;;;;;10336787;28;20380;-63
2022/04/01 19:47:18;;;;;;;1.55;0.82;;;8.10;82.40;;;;;;10341531;28;20026;-65
2022/04/01 19:52:20;;;;;;;1.60;1.20;;;8.10;82.20;;;;;;10346977;28;20037;-65
2022/04/01 19:57:21;;;;;;;1.67;1.08;;;8.10;82.10;;;;;;10345922;28;20042;-64
2022/04/01 20:02:22;;;;;;;2.05;0.90;;;8.10;82.10;;;;;;10353645;28;20030;-64
2022/04/01 20:07:24;;;;;;;2.55;1.38;;;8.10;81.90;;;;;;10366530;28;20042;-65
2022/04/01 20:12:25;;;;;;;2.08;0.93;;;8.50;82.00;;;;;;10373607;28;20033;-62
2022/04/01 20:17:25;;;;;;;2.63;0.90;;;8.00;81.70;;;;;;10346465;28;20049;-60
2022/04/01 20:22:26;;;;;;;2.33;1.00;;;8.40;81.80;;;;;;10372549;28;20380;-61
2022/04/01 20:27:27;;;;;;;2.15;1.25;;;8.10;81.50;;;;;;10359525;28;20191;-61
2022/04/01 20:32:27;;;;;;;2.10;1.10;;;8.00;81.30;;;;;;10360884;28;20073;-63
2022/04/01 20:37:28;;;;;;;1.45;0.95;;;8.00;81.20;;;;;;10359786;28;20069;-61
2022/04/01 20:42:30;;;;;;;3.17;1.00;;;8.00;81.10;;;;;;10353849;28;20477;-63
2022/04/01 20:47:31;;;;;;;4.10;1.20;;;7.90;81.00;;;;;;10352952;28;20022;-63
2022/04/01 20:52:32;;;;;;;1.30;0.80;;;8.00;81.00;;;;;;10360265;28;20036;-61
2022/04/01 20:57:33;;;;;;;3.25;0.90;;;7.90;81.40;;;;;;10353350;28;20521;-63
2022/04/01 21:02:34;;;;;;;1.90;1.00;;;7.90;80.70;;;;;;10354906;28;20480;-62
2022/04/01 21:07:36;;;;;;;1.83;1.02;;;7.90;80.60;;;;;;10358074;28;20038;-63
2022/04/01 21:12:38;;;;;;;2.17;0.85;;;7.90;80.50;;;;;;10350085;28;20490;-61
2022/04/01 21:17:39;;;;;;;1.25;0.93;;;7.90;80.40;;;;;;10375249;28;20140;-64
2022/04/01 21:22:40;;;;;;;3.03;1.25;;;7.80;80.20;;;;;;10348200;28;20037;-63
2022/04/01 21:27:42;;;;;;;2.33;1.25;;;7.80;80.10;;;;;;10349151;28;20026;-60
2022/04/01 21:32:42;;;;;;;3.13;1.08;;;7.80;80.00;;;;;;10358464;28;20019;-62
2022/04/01 21:37:44;;;;;;;1.40;1.00;;;7.80;80.00;;;;;;10345814;28;20389;-62
2022/04/01 21:42:45;;;;;;;3.65;1.20;;;8.30;80.10;;;;;;10345075;28;20496;-60
2022/04/01 21:47:46;;;;;;;2.15;1.23;;;7.70;79.70;;;;;;10340739;28;20019;-64
2022/04/01 21:52:46;;;;;;;2.47;1.38;;;7.70;79.60;;;;;;10343296;28;20489;-63
2022/04/01 21:57:47;;;;;;;3.65;1.30;;;7.70;79.50;;;;;;10353586;28;20405;-64
2022/04/01 22:02:48;;;;;;;3.03;1.15;;;7.70;79.40;;;;;;10347806;28;20026;-64
2022/04/01 22:07:48;;;;;;;2.13;1.10;;;7.70;80.00;;;;;;10353946;28;20034;-64
2022/04/01 22:12:49;;;;;;;3.25;1.20;;;7.70;79.30;;;;;;10359743;28;20427;-64
2022/04/01 22:17:50;;;;;;;2.10;1.35;;;7.60;79.20;;;;;;10371359;28;20116;-64
2022/04/01 22:22:51;;;;;;;1.85;1.30;;;7.70;79.20;;;;;;10375679;28;20030;-63
2022/04/01 22:27:52;;;;;;;2.22;1.20;;;7.60;79.00;;;;;;10363299;28;20076;-64
2022/04/01 22:32:53;;;;;;;2.05;1.00;;;7.90;79.10;;;;;;10361492;28;20481;-64
2022/04/01 22:37:54;;;;;;;2.20;1.20;;;7.60;78.90;;;;;;10366760;28;20045;-63
2022/04/01 22:42:54;;;;;;;2.75;1.30;;;7.60;78.80;;;;;;10363947;28;20124;-64
2022/04/01 22:47:55;;;;;;;3.33;1.42;;;7.60;79.30;;;;;;10364752;28;20348;-63
2022/04/01 22:52:56;;;;;;;2.70;1.27;;;7.50;78.60;;;;;;10372219;28;20052;-63
2022/04/01 22:57:57;;;;;;;3.42;1.50;;;7.50;78.60;;;;;;10351346;28;20101;-61
2022/04/01 23:02:58;;;;;;;2.78;1.23;;;7.50;78.50;;;;;;10363749;28;20030;-64
2022/04/01 23:08:00;;;;;;;2.00;1.10;;;7.50;78.40;;;;;;10351841;28;20018;-64
2022/04/01 23:13:01;;;;;;;2.47;1.50;;;7.70;78.50;;;;;;10360602;28;20033;-63
2022/04/01 23:18:05;;;;;;;2.50;1.30;;;7.50;78.30;;;;;;10369738;28;20049;-63
2022/04/01 23:23:07;;;;;;;2.15;1.20;;;7.50;78.30;;;;;;10373459;28;20018;-62
2022/04/01 23:28:08;;;;;;;2.30;1.15;;;7.40;78.20;;;;;;10370599;28;20175;-61
2022/04/01 23:33:08;;;;;;;1.75;1.20;;;7.50;78.20;;;;;;10360131;28;20049;-64
2022/04/01 23:38:09;;;;;;;4.25;1.00;;;7.40;78.00;;;;;;10365031;28;20049;-63
2022/04/01 23:43:13;;;;;;;2.38;1.20;;;7.40;77.90;;;;;;10369686;28;20041;-63
2022/04/01 23:48:13;;;;;;;2.10;1.20;;;7.40;77.90;;;;;;10366358;28;20040;-60
2022/04/01 23:53:14;;;;;;;3.00;1.58;;;7.60;78.50;;;;;;10354589;28;20040;-61
2022/04/01 23:58:15;;;;;;;2.50;1.42;;;7.40;77.70;;;;;;10371799;28;20072;-61
